Terminal Aerodrome Forecast
Issued by NWS

Home | Current Version | Previous Version | Text Only | Print | Product List | Glossary On
Versions: 1 2 3 4 5 6 7 8 9 10 11 12 13 14 15 16 17 18 19 20 21 22 23 24 25 26 27 28 29
000
FTUS44 KMAF 250600 AAA
TAFFST
TAF AMD
KFST 250645Z 2507/2606 21013KT P6SM BKN200
     FM251400 19013KT P6SM FEW200
     FM260000 16016KT P6SM SCT200=

USA.gov is the U.S. government's official web portal to all federal, state and local government web resources and services.